Terminal Aerodrome Forecast
Issued by NWS Sioux Falls, SD

Home | Current Version | Previous Version | Graphics & Text | Print | Product List | Glossary Off
Versions: 1 2 3 4 5 6 7 8 9 10 11 12 13 14 15 16 17 18

000
FTUS43 KFSD 200500
TAFHON
TAF
KHON 200538Z 2006/2106 14006KT P6SM SCT250
     FM200900 13007KT P6SM SCT100
     FM201600 14014G19KT P6SM BKN090
     FM202300 15011KT P6SM SCT040 OVC080
      TEMPO 2101/2104 6SM TSRA BKN040CB=

USA.gov is the U.S. government's official web portal to all federal, state and local government web resources and services.